Victor Herrera

Recruteur en chef - Cortulua
4 Avr 2027
Dimanche
Processus

Personnalité

Adaptabilité (18) Ambition (1) Controverse (15) Loyauté (5) Pression (11) Professionnalisme (11) Sportivité (12) Tempérament (18)

Profil

Style d'entraînement Démocratique
Diplôme Continental B
Détermination 11
Gestion des joueurs 5
Motivation 8
Discipline 10
Satisfaction professionnelle
49%
Fatigue
0%
Rôle Recruteur en chef
Salaire 10.6K p/s
Contrat 14.03.2029

Performance

Comportement Normal
Efficacité de l'entraînement
17%
Développement des joueurs
55%
Prévention des blessures
15%
Mise en place tactique
20%

Événements récents

A recommandé une cible de transfert maintenant
A participé à une réunion de recrutement maintenant
A participé à une réunion de recrutement maintenant
A participé à une réunion de recrutement maintenant
A participé à une réunion de recrutement maintenant
A participé à une réunion de recrutement maintenant
A participé à une réunion de recrutement maintenant
A évalué un joueur maintenant

Suivi en cours

152
Joueur Club Statut Capacité Confiance Observé Dernière observation Dernier vote
Salah Mohsen El Masry Actif 109 / 120 40% 4 03.04.2027 -
Jean-Luc Morin Tours Actif 138 / 148 40% 6 03.04.2027 -
Dom Ballard Leyton Orient Actif 132 / 119 40% 5 03.04.2027 -
Job Ochieng Real Sociedad Actif 115 / 117 40% 6 01.04.2027 -
Adnan Courtois KV Oostende Actif 121 / 135 40% 3 01.04.2027 -
Jovon Makama Norwich City Actif 126 / 117 40% 2 01.04.2027 -
Jerónimo Porto Lapegüe Slask Actif 118 / 99 40% 3 30.03.2027 Plus d'infos
Dani Gómez Zaragoza Actif 130 / 108 40% 3 30.03.2027 -
Diego Valencia Gornik Leczna Actif 113 / 113 40% 6 26.03.2027 -
Felipe Fernández Vorskla Actif 114 / 110 40% 3 26.03.2027 -
Karlan Grant West Bromwich Albion Actif 110 / 130 40% 1 26.03.2027 -
Haji Wright Coventry City Actif 143 / 138 40% 2 24.03.2027 -
Konan N'Dri Lecce Actif 137 / 126 40% 1 24.03.2027 -
Taiwo Awoniyi Coventry City Actif 144 / 140 40% 6 23.03.2027 -
Patson Daka Leicester City Actif 125 / 126 40% 1 21.03.2027 -
Sam Nombe Milton Keynes Dons Actif 122 / 101 40% 2 20.03.2027 -
Bertrand Traoré Sunderland Actif 125 / 138 40% 3 20.03.2027 -
George Hirst Stoke City Actif 135 / 139 40% 7 16.03.2027 -
Everton Bala Levski Actif 136 / 124 40% 2 15.03.2027 -
Rumarn Burrell Queens Park Rangers Actif 130 / 120 40% 1 15.03.2027 -
Seidu Basit Ashanti Gold Actif 82 / 92 40% 4 14.03.2027 -
Simone Rabbi Ravenna Actif 122 / 105 40% 2 14.03.2027 -
Niall Ennis Blackpool Actif 101 / 111 40% 2 14.03.2027 -
Matty Stevens AFC Wimbledon Actif 119 / 98 40% 3 12.03.2027 -
Dany Mota Monza Actif 144 / 127 40% 3 12.03.2027 -
Luis Vázquez Birmingham Actif 126 / 127 40% 1 12.03.2027 -
John Yeboah Venezia Actif 120 / 128 40% 1 10.03.2027 -
Yousef Salech Cardiff City Actif 140 / 127 40% 2 09.03.2027 -
Emil Riis Bristol City Actif 133 / 121 40% 1 08.03.2027 -
Malik Mothersille Stockport County Actif 112 / 123 40% 3 06.03.2027 -
Kyle Wootton Stockport County Actif 125 / 116 40% 1 06.03.2027 -
Joe Gelhardt Hull City Actif 141 / 128 40% 2 05.03.2027 -
Elijah Adebayo Luton Town Actif 117 / 118 40% 3 05.03.2027 -
Kwame Opoku Asante Kotoko Actif 110 / 107 40% 2 02.03.2027 -
Josh Coburn Millwall Actif 114 / 124 40% 3 28.02.2027 -
Martín Pino Antalyaspor Actif 116 / 122 40% 1 28.02.2027 -
Mihailo Ivanović Millwall Actif 115 / 121 40% 1 26.02.2027 -
Ivan Luquetta Neftekhimik Actif 87 / 103 40% 2 25.02.2027 -
Alexandr Sojka Viktoria Plzen Actif 135 / 128 40% 2 24.02.2027 -
Oli McBurnie Hull City Actif 130 / 132 40% 2 21.02.2027 -
Martín Álvarez Barnsley Actif 122 / 108 40% 5 15.02.2027 -
John Okoye Ebuka Ittihad Actif 111 / 117 40% 1 14.02.2027 -
Stephen Amankona Aduana Stars Actif 83 / 94 40% 1 14.02.2027 -
Harry Cornick AFC Wimbledon Actif 95 / 103 40% 1 11.02.2027 -
Nardin Mulahusejnović Vojvodina Actif 117 / 118 40% 1 03.02.2027 -
Lorent Tolaj Plymouth Argyle Actif 112 / 124 40% 4 02.02.2027 -
Erik Prekop Gornik Zabrze Actif 134 / 132 40% 1 01.02.2027 -
Morgan Whittaker Middlesbrough Actif 135 / 139 40% 1 26.01.2027 -
Iwan Morgan Grimsby Town Actif 105 / 121 40% 1 24.01.2027 -
Daniel Vašulín Zbrojovka Brno Actif 107 / 115 40% 1 22.01.2027 -
Bienvenue Kanakimana Zbrojovka Brno Actif 108 / 118 40% 1 19.01.2027 -
Mauro Valiente Estudiantes Actif 108 / 108 40% 3 17.01.2027 -
Marcus Browne AFC Wimbledon Actif 106 / 113 40% 1 16.01.2027 -
Danyil Alefirenko Chornomorets Actif 95 / 104 40% 1 16.01.2027 -
Franco Fagúndez Estudiantes Actif 112 / 121 40% 5 15.01.2027 -
Alexandr Dolgov Amkar Actif 81 / 96 40% 1 09.01.2027 -
Edarlyn Reyes Arsenal Tula Actif 120 / 103 40% 1 09.01.2027 -
Bogdan Petrović TSC Actif 108 / 107 40% 1 06.01.2027 -
Marcelo Estigarribia Unión de Santa Fe Actif 114 / 125 40% 2 05.01.2027 -
Bohdan Viunnyk Lechia Actif 114 / 115 40% 1 04.01.2027 -
Lazar Tufegdžić Cukaricki Actif 120 / 105 40% 1 04.01.2027 -
Facundo Castro Nueva Chicago Actif 121 / 106 40% 4 28.12.2026 -
Humberto García Real Cartagena Négociation 86 / 100 62% 1 07.12.2026 Approuver
Emilio Pardo Llaneros Perdu 76 / 87 62% 1 01.12.2026 -
Octavio Bianchi HNK Vukovar 1991 Actif 107 / 115 40% 2 30.11.2026 -
Mauro Méndez Tigre Actif 125 / 115 40% 2 30.11.2026 -
Lucas Cano All Boys Actif 105 / 106 40% 2 28.11.2026 -
Luciano Cosentino Wanderers Actif 127 / 124 40% 2 28.11.2026 -
Ezequiel Almirón Estudiantes Actif 113 / 120 40% 1 26.11.2026 -
Edwar López Deportes Tolima Actif 110 / 123 40% 2 23.11.2026 -
David Barbona Defensa y Justicia Actif 131 / 126 40% 4 18.11.2026 -
Assad Al Hamlawi Universitatea Craiova Actif 131 / 114 40% 1 18.11.2026 -
Lucas Varaldo Central Córdoba SdE Actif 117 / 116 40% 1 17.11.2026 Plus d'infos
Lautaro Gordillo Colegiales Actif 109 / 104 40% 1 16.11.2026 -
Rodin Quiñónes Dinamo Batumi Actif 116 / 117 40% 3 15.11.2026 -
Rodrigo Bogarín Barracas Central Actif 124 / 117 40% 1 11.11.2026 -
Michael Vadulli Audax Italiano Actif 110 / 106 40% 3 09.11.2026 -
Agustín Hausch Defensa y Justicia Actif 112 / 121 40% 1 08.11.2026 -
Facundo Krüger Temperley Actif 116 / 112 40% 2 05.11.2026 Plus d'infos
Nicolás Sosa Racing Actif 105 / 119 40% 2 05.11.2026 Plus d'infos
Renzo Reynaga Patronato Actif 117 / 106 40% 1 04.11.2026 Plus d'infos
Lucio Castillo Colegiales Actif 112 / 106 40% 1 04.11.2026 -
Jefry Zapata Once Caldas Actif 125 / 111 40% 1 03.11.2026 Plus d'infos
Guido Mainero Platense Actif 117 / 126 40% 1 03.11.2026 Plus d'infos
Oscar Garrido Dukla Prague Actif 129 / 111 40% 1 03.11.2026 -
Álex Arce Independiente Rivadavia Actif 119 / 123 40% 3 01.11.2026 -
Facundo Pons San Martín Actif 121 / 117 40% 2 31.10.2026 -
Nicolás Contín Gimnasia y Tiro Actif 109 / 111 40% 2 27.10.2026 -
Favio Cabral Mitre Actif 110 / 110 40% 3 25.10.2026 -
Tiago Pucciarelli FK Senica Actif 114 / 104 40% 2 25.10.2026 -
Justo Giani Universidad Catolica Actif 112 / 120 40% 3 23.10.2026 -
Santiago Sala Güemes Actif 104 / 114 40% 1 23.10.2026 -
Claudio Villagra Godoy Cruz Actif 103 / 116 40% 1 22.10.2026 -
Santiago Rodríguez Gimnasia y Esgrima Actif 117 / 119 40% 2 19.10.2026 -
Lucas González Estudiantes Actif 105 / 115 40% 1 19.10.2026 -
Cristian Barros Cerro Actif 114 / 107 40% 3 17.10.2026 -
Juan Rocca Gimnasia y Tiro Actif 109 / 113 40% 1 17.10.2026 -
Enzo González Defensores Actif 113 / 97 40% 2 16.10.2026 -
Federico Martínez Liverpool Montevideo Actif 122 / 115 40% 2 16.10.2026 -
Luca Martínez Dupuy Godoy Cruz Actif 123 / 113 40% 1 13.10.2026 -
Alejandro Melo Temperley Actif 124 / 108 40% 1 12.10.2026 -
Jonathan Bay San Miguel Actif 109 / 115 40% 1 11.10.2026 -
Martín Campos Ferro Carril Oeste Actif 116 / 121 40% 1 11.10.2026 -
Tomás Bolzicco Chaco For Ever Actif 115 / 105 40% 1 11.10.2026 -
Lucas Rodríguez Aldosivi Actif 111 / 116 40% 1 08.10.2026 -
Matías Sosa Arsenal Actif 109 / 108 40% 1 08.10.2026 -
Thiago Calone All Boys Actif 120 / 118 40% 1 08.10.2026 -
Ruyery Blanco Alianza Petrolera Actif 106 / 104 40% 2 06.10.2026 -
Matías Fernández Independiente Rivadavia Actif 113 / 120 40% 1 05.10.2026 -
Bruno Pittón Unión de Santa Fe Actif 123 / 116 40% 1 05.10.2026 -
Alejo Cruz Juventud Actif 127 / 113 40% 1 01.10.2026 -
Marcelo Torres Gimnasia La Plata Actif 124 / 122 40% 1 26.09.2026 -
Enzo Avaro Mitre Actif 104 / 114 40% 1 23.09.2026 -
Facundo de León Progreso Actif 110 / 107 40% 1 21.09.2026 -
Agustín Venezia Iquique Actif 106 / 112 40% 3 19.09.2026 -
Javi Zarzo Viitorul Actif 100 / 91 40% 1 19.09.2026 -
Leandro Suhr Boston River Actif 115 / 114 40% 1 16.09.2026 -
Franco Déboli Slaven Belupo Actif 98 / 107 40% 1 16.09.2026 -
Ramiro Ruiz Rodríguez Atlético Tucumán Actif 112 / 120 40% 2 14.09.2026 -
Marcos Camarda Santiago Wanderers Actif 97 / 110 40% 1 14.09.2026 -
Johar Mejía Rapid Wien Actif 117 / 117 40% 3 13.09.2026 -
Duk Atlas Actif 130 / 104 40% 2 13.09.2026 -
Ekain Orobengoa Real Sociedad Actif 85 / 97 40% 1 10.09.2026 -
Matías Gallegos Antofagasta Actif 94 / 105 40% 1 09.09.2026 -
José Rivera Universitario Actif 120 / 118 40% 1 09.09.2026 -
Jonathan Cañete Portuguesa Actif 120 / 105 40% 1 07.09.2026 -
Harold Santiago Mosquera Cerro Porteno Actif 129 / 124 40% 2 06.09.2026 -
Nahuel Luján Sport Huancayo Actif 113 / 112 40% 2 04.09.2026 -
César Magallan Estudiantes de Merida Actif 115 / 106 40% 1 04.09.2026 -
Mourad Tijuana Actif 122 / 116 40% 1 02.09.2026 -
Richard Figueroa Deportivo Lara Actif 101 / 103 40% 1 29.08.2026 -
Brayan Alcócer Rubin Actif 94 / 99 40% 1 28.08.2026 -
Maximiliano Rodríguez Huachipato Actif 105 / 107 40% 1 28.08.2026 -
Ronny Maza Aragua Actif 104 / 96 40% 3 27.08.2026 -
Jeriel De Santis Caracas Actif 96 / 104 40% 1 26.08.2026 -
Kevin Méndez Union La Calera Actif 107 / 103 40% 2 24.08.2026 -
José Rivas Gamboa Trujillanos Actif 100 / 93 40% 1 18.08.2026 -
Arnaldo Castillo O'Higgins Actif 107 / 100 40% 1 17.08.2026 -
Clemente Montes Universidad Catolica Actif 123 / 115 40% 2 16.08.2026 -
Ronaldo Peña Deportivo Lara Actif 108 / 100 40% 1 16.08.2026 -
Luis Ramos Alianza Lima Actif 110 / 117 40% 1 15.08.2026 -
Cristian Duma HNK Rijeka Actif 96 / 109 40% 1 15.08.2026 -
Genaro Rossi San Martín SJ Actif 99 / 102 40% 1 12.08.2026 -
Junior Paredes Trujillanos Actif 103 / 101 40% 1 11.08.2026 -
Rodrigo Pollero Deportivo Tachira Actif 113 / 107 40% 2 08.08.2026 -
Gustavo Aguilar Libertad Actif 102 / 101 40% 1 08.08.2026 -
Adalberto Peñaranda Deportivo Tachira Actif 117 / 118 40% 1 07.08.2026 -
Nicolás Orellana Audax Italiano Actif 104 / 112 40% 1 06.08.2026 -
Marcelo Fernández Libertad Actif 112 / 117 40% 1 05.08.2026 -
Jhojan Julio Queretaro Actif 124 / 114 40% 1 05.08.2026 -
Misael Sosa Godoy Cruz Actif 122 / 110 40% 1 01.08.2026 -
Juan Otero Gijón Actif 139 / 126 40% 1 01.08.2026 -